createdAt,value
2018-06-27T00:01:16.416Z,17.20
2018-06-27T00:03:45.570Z,17.18
2018-06-27T00:06:15.258Z,17.17
2018-06-27T00:08:44.655Z,17.13
2018-06-27T00:11:14.150Z,17.09
2018-06-27T00:13:44.401Z,17.07
2018-06-27T00:16:14.048Z,17.05
2018-06-27T00:18:42.828Z,17.03
2018-06-27T00:21:12.614Z,17.01
2018-06-27T00:23:41.404Z,16.99
2018-06-27T00:26:10.165Z,16.98
2018-06-27T00:28:39.839Z,16.95
2018-06-27T00:31:08.581Z,16.94
2018-06-27T00:33:37.348Z,16.93
2018-06-27T00:36:06.207Z,16.91
2018-06-27T00:38:34.994Z,16.91
2018-06-27T00:41:03.999Z,16.91
2018-06-27T00:43:32.969Z,16.90
2018-06-27T00:46:01.789Z,16.89
2018-06-27T00:48:30.536Z,16.87
2018-06-27T00:50:59.635Z,16.86
2018-06-27T00:53:34.694Z,16.85
2018-06-27T00:56:04.640Z,16.84
2018-06-27T00:58:33.350Z,16.82
2018-06-27T01:01:02.117Z,16.80
2018-06-27T01:03:30.924Z,16.77
2018-06-27T01:06:00.527Z,16.74
2018-06-27T01:08:30.061Z,16.72
2018-06-27T01:10:59.548Z,16.68
2018-06-27T01:13:28.327Z,16.62
2018-06-27T01:15:57.898Z,16.55
2018-06-27T01:18:26.694Z,16.51
2018-06-27T01:20:55.436Z,16.45
2018-06-27T01:23:24.592Z,16.44
2018-06-27T01:25:53.383Z,16.42
2018-06-27T01:28:23.623Z,16.39
2018-06-27T01:30:52.781Z,16.37
2018-06-27T01:33:22.167Z,16.32
2018-06-27T01:35:51.160Z,16.27
2018-06-27T01:38:20.928Z,16.24
2018-06-27T01:40:51.031Z,16.23
2018-06-27T01:43:20.035Z,16.22
2018-06-27T01:45:48.794Z,16.21
2018-06-27T01:48:17.667Z,16.21
2018-06-27T01:50:47.302Z,16.20
2018-06-27T01:53:16.061Z,16.19
2018-06-27T01:55:45.492Z,16.15
2018-06-27T01:58:15.111Z,16.15
2018-06-27T02:00:43.864Z,16.15
2018-06-27T02:03:12.679Z,16.11
2018-06-27T02:05:42.308Z,16.09
2018-06-27T02:08:11.095Z,16.07
2018-06-27T02:10:40.646Z,16.09
2018-06-27T02:13:10.323Z,16.08
2018-06-27T02:15:40.413Z,16.09
2018-06-27T02:18:09.206Z,16.09
2018-06-27T02:20:37.982Z,16.09
2018-06-27T02:23:09.086Z,16.05
2018-06-27T02:25:38.196Z,16.03
2018-06-27T02:28:08.431Z,16.03
2018-06-27T02:30:37.243Z,16.03
2018-06-27T02:33:06.027Z,16.05
2018-06-27T02:35:34.859Z,16.09
2018-06-27T02:38:03.639Z,16.10
2018-06-27T02:40:33.097Z,16.12
2018-06-27T02:43:01.848Z,16.15
2018-06-27T02:45:30.618Z,16.16
2018-06-27T02:48:00.430Z,16.21
2018-06-27T02:50:29.194Z,16.24
2018-06-27T02:52:58.173Z,16.47
2018-06-27T02:55:27.805Z,17.22
2018-06-27T02:57:56.558Z,17.98
2018-06-27T03:00:25.374Z,18.74
2018-06-27T03:02:54.649Z,19.53
2018-06-27T03:05:24.366Z,20.31
2018-06-27T03:07:54.816Z,20.98
2018-06-27T03:10:24.634Z,21.52
2018-06-27T03:12:53.580Z,21.91
2018-06-27T03:15:23.238Z,22.36
2018-06-27T03:17:53.268Z,22.77
2018-06-27T03:20:22.307Z,23.13
2018-06-27T03:22:51.591Z,23.56
2018-06-27T03:25:20.495Z,23.49
2018-06-27T03:27:50.268Z,23.99
2018-06-27T03:30:19.064Z,24.56
2018-06-27T03:32:47.938Z,25.09
2018-06-27T03:35:16.770Z,25.43
2018-06-27T03:37:45.519Z,25.03
2018-06-27T03:40:15.052Z,24.41
2018-06-27T03:42:43.827Z,23.93
2018-06-27T03:45:12.658Z,23.37
2018-06-27T03:47:42.318Z,22.75
2018-06-27T03:50:11.110Z,22.23
2018-06-27T03:52:45.512Z,21.76
2018-06-27T03:55:15.160Z,21.27
2018-06-27T03:57:44.317Z,21.05
2018-06-27T04:00:13.073Z,20.94
2018-06-27T04:02:41.914Z,20.80
2018-06-27T04:05:11.189Z,20.59
2018-06-27T04:07:40.887Z,21.42
2018-06-27T04:10:11.635Z,21.15
2018-06-27T04:12:41.214Z,21.55
2018-06-27T04:15:10.644Z,22.18
2018-06-27T04:17:39.930Z,22.62
2018-06-27T04:20:08.842Z,22.80
2018-06-27T04:22:37.585Z,22.80
2018-06-27T04:25:06.413Z,22.76
2018-06-27T04:27:36.171Z,22.62
2018-06-27T04:30:05.379Z,22.42
2018-06-27T04:32:34.183Z,22.21
2018-06-27T04:35:02.990Z,22.06
2018-06-27T04:37:32.024Z,21.90
2018-06-27T04:40:01.476Z,21.78
2018-06-27T04:42:30.394Z,21.72
2018-06-27T04:45:00.173Z,21.60
2018-06-27T04:47:28.936Z,21.49
2018-06-27T04:49:58.775Z,21.48
2018-06-27T04:52:27.592Z,21.46
2018-06-27T04:54:56.396Z,21.41
2018-06-27T04:57:26.287Z,21.33
2018-06-27T04:59:55.119Z,21.31
2018-06-27T05:02:23.876Z,21.31
2018-06-27T05:04:52.900Z,21.35
2018-06-27T05:07:23.608Z,21.35
2018-06-27T05:09:53.398Z,21.39
2018-06-27T05:12:23.023Z,21.42
2018-06-27T05:14:53.172Z,21.40
2018-06-27T05:17:23.011Z,21.42
2018-06-27T05:19:52.010Z,21.42
2018-06-27T05:22:20.954Z,21.38
2018-06-27T05:24:49.871Z,21.40
2018-06-27T05:27:19.234Z,21.44
2018-06-27T05:29:48.866Z,21.52
2018-06-27T05:32:17.774Z,21.57
2018-06-27T05:34:46.571Z,21.66
2018-06-27T05:37:15.357Z,21.74
2018-06-27T05:39:44.890Z,21.82
2018-06-27T05:42:14.327Z,21.89
2018-06-27T05:44:43.112Z,21.99
2018-06-27T05:47:11.865Z,22.09
2018-06-27T05:49:40.694Z,22.20
2018-06-27T05:52:09.534Z,22.27
2018-06-27T05:54:39.079Z,22.35
2018-06-27T05:57:08.986Z,22.43
2018-06-27T05:59:37.807Z,22.48
2018-06-27T06:02:06.738Z,22.54
2018-06-27T06:04:35.534Z,22.64
2018-06-27T06:07:04.904Z,22.73
2018-06-27T06:09:34.433Z,22.84
2018-06-27T06:12:03.834Z,22.89
2018-06-27T06:14:33.566Z,22.91
2018-06-27T06:17:03.278Z,22.98
2018-06-27T06:19:32.041Z,23.04
2018-06-27T06:22:00.855Z,23.07
2018-06-27T06:24:29.721Z,23.09
2018-06-27T06:26:58.459Z,23.16
2018-06-27T06:29:27.882Z,23.27
2018-06-27T06:31:56.655Z,23.30
2018-06-27T06:34:25.517Z,23.31
2018-06-27T06:36:54.347Z,23.33
2018-06-27T06:39:23.797Z,23.44
2018-06-27T06:41:53.556Z,23.52
2018-06-27T06:44:22.633Z,23.67
2018-06-27T06:46:52.027Z,23.79
2018-06-27T06:49:21.227Z,23.89
2018-06-27T06:51:51.065Z,24.00
2018-06-27T06:54:20.073Z,24.07
2018-06-27T06:56:49.791Z,24.13
2018-06-27T06:59:18.631Z,24.22
2018-06-27T07:01:47.464Z,24.33
2018-06-27T07:04:16.242Z,24.40
2018-06-27T07:06:45.850Z,24.53
2018-06-27T07:09:15.742Z,24.59
2018-06-27T07:11:45.227Z,24.73
2018-06-27T07:14:14.705Z,24.82
2018-06-27T07:16:44.326Z,24.91
2018-06-27T07:19:13.087Z,24.98
2018-06-27T07:21:41.893Z,25.04
2018-06-27T07:24:10.726Z,25.12
2018-06-27T07:26:39.488Z,25.21
2018-06-27T07:29:08.984Z,25.26
2018-06-27T07:31:37.786Z,25.27
2018-06-27T07:34:06.604Z,25.33
2018-06-27T07:36:36.535Z,25.41
2018-06-27T07:39:08.219Z,25.50
2018-06-27T07:41:37.995Z,25.62
2018-06-27T07:44:06.870Z,25.78
2018-06-27T07:46:35.683Z,25.93
2018-06-27T07:49:04.499Z,26.00
2018-06-27T07:51:33.347Z,26.12
2018-06-27T07:54:02.252Z,26.19
2018-06-27T07:56:32.074Z,26.23
2018-06-27T07:59:01.230Z,26.34
2018-06-27T08:01:30.024Z,26.45
2018-06-27T08:03:58.823Z,26.56
2018-06-27T08:06:32.319Z,26.63
2018-06-27T08:09:01.768Z,26.72
2018-06-27T08:11:31.072Z,26.82
2018-06-27T08:14:00.582Z,26.92
2018-06-27T08:16:29.867Z,27.02
2018-06-27T08:18:58.690Z,27.12
2018-06-27T08:21:27.471Z,27.14
2018-06-27T08:23:56.255Z,27.18
2018-06-27T08:26:25.226Z,27.23
2018-06-27T08:28:54.707Z,27.18
2018-06-27T08:31:24.059Z,27.17
2018-06-27T08:33:54.308Z,27.21
2018-06-27T08:36:23.769Z,27.19
2018-06-27T08:38:53.630Z,27.25
2018-06-27T08:41:23.288Z,27.15
2018-06-27T08:43:53.131Z,27.18
2018-06-27T08:46:24.067Z,27.29
2018-06-27T08:48:53.054Z,27.30
2018-06-27T08:51:22.970Z,27.31
2018-06-27T08:53:52.239Z,27.37
2018-06-27T08:56:22.866Z,27.44
2018-06-27T08:58:51.876Z,27.53
2018-06-27T09:01:22.007Z,27.68
2018-06-27T09:03:52.015Z,27.74
2018-06-27T09:06:22.342Z,27.77
2018-06-27T09:08:52.175Z,27.86
2018-06-27T09:11:22.889Z,27.94
2018-06-27T09:13:53.811Z,28.03
2018-06-27T09:16:24.168Z,28.10
2018-06-27T09:18:54.012Z,28.10
2018-06-27T09:21:23.058Z,28.03
2018-06-27T09:23:52.917Z,27.94
2018-06-27T09:26:22.470Z,27.90
2018-06-27T09:28:51.482Z,27.93
2018-06-27T09:31:22.686Z,27.99
2018-06-27T09:33:52.016Z,28.01
2018-06-27T09:36:20.863Z,28.07
2018-06-27T09:38:49.829Z,28.13
2018-06-27T09:41:19.290Z,28.23
2018-06-27T09:43:48.450Z,28.24
2018-06-27T09:46:17.242Z,28.23
2018-06-27T09:48:46.148Z,28.27
2018-06-27T09:51:15.096Z,28.27
2018-06-27T09:53:44.173Z,28.31
2018-06-27T09:56:13.739Z,28.41
2018-06-27T09:58:42.561Z,28.58
2018-06-27T10:01:11.311Z,28.75
2018-06-27T10:03:41.176Z,28.85
2018-06-27T10:06:10.583Z,28.71
2018-06-27T10:08:39.986Z,28.57
2018-06-27T10:11:09.683Z,28.60
2018-06-27T10:13:40.626Z,28.59
2018-06-27T10:16:10.123Z,28.56
2018-06-27T10:18:38.946Z,28.59
2018-06-27T10:21:07.722Z,28.60
2018-06-27T10:23:37.103Z,28.71
2018-06-27T10:26:06.063Z,28.74
2018-06-27T10:28:37.102Z,28.79
2018-06-27T10:31:05.932Z,28.79
2018-06-27T10:33:36.248Z,28.84
2018-06-27T10:36:05.226Z,28.89
2018-06-27T10:38:34.054Z,29.00
2018-06-27T10:41:03.471Z,29.11
2018-06-27T10:43:32.275Z,29.26
2018-06-27T10:46:01.070Z,29.40
2018-06-27T10:48:29.910Z,29.48
2018-06-27T10:50:58.699Z,29.47
2018-06-27T10:53:27.530Z,29.52
2018-06-27T10:55:57.011Z,29.58
2018-06-27T10:58:25.796Z,29.64
2018-06-27T11:00:54.548Z,29.62
2018-06-27T11:03:24.363Z,29.59
2018-06-27T11:05:54.139Z,29.48
2018-06-27T11:08:23.934Z,29.37
2018-06-27T11:10:53.937Z,29.33
2018-06-27T11:13:24.288Z,29.38
2018-06-27T11:15:53.994Z,29.44
2018-06-27T11:18:23.144Z,29.49
2018-06-27T11:20:52.123Z,29.53
2018-06-27T11:23:21.140Z,29.58
2018-06-27T11:25:49.951Z,29.56
2018-06-27T11:28:19.509Z,29.58
2018-06-27T11:30:48.267Z,29.65
2018-06-27T11:33:17.084Z,29.67
2018-06-27T11:35:45.895Z,29.67
2018-06-27T11:38:14.643Z,29.67
2018-06-27T11:40:44.043Z,29.60
2018-06-27T11:43:14.243Z,29.64
2018-06-27T11:45:42.943Z,29.71
2018-06-27T11:48:11.739Z,29.74
2018-06-27T11:50:40.500Z,29.75
2018-06-27T11:53:09.727Z,29.79
2018-06-27T11:55:39.542Z,29.73
2018-06-27T11:58:08.422Z,29.77
2018-06-27T12:00:37.191Z,29.82
2018-06-27T12:03:06.894Z,29.87
2018-06-27T12:05:36.389Z,29.93
2018-06-27T12:08:05.170Z,29.88
2018-06-27T12:10:34.477Z,29.87
2018-06-27T12:13:03.501Z,29.86
2018-06-27T12:15:33.067Z,29.86
2018-06-27T12:18:01.836Z,29.94
2018-06-27T12:20:30.567Z,29.92
2018-06-27T12:22:59.462Z,29.88
2018-06-27T12:25:29.036Z,29.90
2018-06-27T12:27:57.855Z,29.89
2018-06-27T12:30:26.609Z,29.89
2018-06-27T12:32:55.570Z,29.90
2018-06-27T12:35:24.669Z,29.84
2018-06-27T12:37:54.307Z,29.88
2018-06-27T12:40:24.431Z,30.00
2018-06-27T12:42:54.305Z,30.11
2018-06-27T12:45:23.322Z,30.07
2018-06-27T12:47:52.336Z,30.03
2018-06-27T12:50:21.151Z,29.98
2018-06-27T12:52:49.939Z,30.01
2018-06-27T12:55:19.494Z,30.01
2018-06-27T12:57:48.251Z,30.01
2018-06-27T13:00:16.996Z,30.04
2018-06-27T13:02:46.595Z,30.07
2018-06-27T13:05:17.138Z,30.19
2018-06-27T13:07:45.870Z,30.31
2018-06-27T13:10:15.648Z,30.34
2018-06-27T13:12:44.389Z,30.41
2018-06-27T13:15:14.030Z,30.47
2018-06-27T13:17:43.849Z,30.49
2018-06-27T13:20:12.626Z,30.51
2018-06-27T13:22:42.006Z,30.46
2018-06-27T13:25:10.748Z,30.42
2018-06-27T13:28:42.603Z,30.39
2018-06-27T13:31:11.342Z,30.22
2018-06-27T13:33:40.189Z,30.29
2018-06-27T13:36:09.050Z,30.32
2018-06-27T13:38:37.911Z,30.37
2018-06-27T13:41:07.467Z,30.39
2018-06-27T13:43:36.344Z,30.37
2018-06-27T13:46:05.329Z,30.39
2018-06-27T13:48:34.378Z,30.44
2018-06-27T13:51:03.124Z,30.42
2018-06-27T13:53:32.083Z,30.36
2018-06-27T13:56:01.718Z,30.32
2018-06-27T13:58:30.524Z,30.30
2018-06-27T14:00:59.313Z,30.40
2018-06-27T14:03:28.978Z,30.44
2018-06-27T14:05:58.311Z,30.49
2018-06-27T14:08:27.687Z,30.49
2018-06-27T14:10:57.001Z,30.49
2018-06-27T14:13:26.419Z,30.54
2018-06-27T14:15:56.212Z,30.51
2018-06-27T14:18:25.364Z,30.46
2018-06-27T14:20:55.120Z,30.46
2018-06-27T14:23:24.191Z,30.45
2018-06-27T14:25:53.185Z,30.55
2018-06-27T14:28:22.001Z,30.54
2018-06-27T14:30:50.851Z,30.57
2018-06-27T14:33:19.752Z,30.63
2018-06-27T14:35:48.547Z,30.63
2018-06-27T14:38:17.295Z,30.60
2018-06-27T14:40:47.363Z,30.65
2018-06-27T14:43:16.831Z,30.74
2018-06-27T14:45:45.582Z,30.77
2018-06-27T14:48:14.428Z,30.88
2018-06-27T14:50:43.672Z,30.84
2018-06-27T14:53:12.421Z,30.86
2018-06-27T14:55:41.990Z,30.90
2018-06-27T14:58:10.887Z,30.89
2018-06-27T15:00:40.092Z,30.78
2018-06-27T15:03:09.620Z,30.75
2018-06-27T15:05:39.222Z,30.85
2018-06-27T15:08:09.038Z,30.93
2018-06-27T15:10:38.525Z,30.97
2018-06-27T15:13:07.272Z,30.93
2018-06-27T15:15:36.974Z,30.93
2018-06-27T15:18:06.554Z,30.87
2018-06-27T15:20:35.651Z,30.73
2018-06-27T15:23:04.455Z,30.71
2018-06-27T15:25:33.300Z,30.87
2018-06-27T15:28:02.071Z,31.16
2018-06-27T15:30:30.892Z,31.58
2018-06-27T15:32:59.682Z,32.11
2018-06-27T15:35:28.553Z,32.86
2018-06-27T15:37:57.292Z,33.52
2018-06-27T15:40:27.251Z,34.14
2018-06-27T15:42:56.864Z,34.60
2018-06-27T15:45:25.850Z,35.19
2018-06-27T15:47:55.742Z,35.51
2018-06-27T15:50:25.088Z,35.90
2018-06-27T15:52:54.258Z,36.49
2018-06-27T15:55:23.927Z,36.81
2018-06-27T15:57:53.206Z,37.07
2018-06-27T16:00:22.140Z,37.33
2018-06-27T16:02:51.491Z,37.54
2018-06-27T16:05:21.343Z,37.63
2018-06-27T16:07:50.109Z,37.84
2018-06-27T16:10:19.733Z,37.98
2018-06-27T16:12:48.510Z,38.05
2018-06-27T16:15:17.958Z,38.19
2018-06-27T16:17:47.279Z,38.20
2018-06-27T16:20:16.030Z,38.22
2018-06-27T16:22:44.833Z,38.40
2018-06-27T16:25:13.652Z,38.68
2018-06-27T16:27:42.467Z,38.73
2018-06-27T16:30:11.336Z,39.03
2018-06-27T16:32:40.198Z,39.11
2018-06-27T16:35:08.992Z,39.29
2018-06-27T16:37:37.778Z,39.59
2018-06-27T16:40:07.785Z,39.64
2018-06-27T16:42:37.052Z,39.77
2018-06-27T16:45:06.239Z,39.94
2018-06-27T16:47:35.015Z,39.85
2018-06-27T16:50:04.011Z,39.93
2018-06-27T16:52:32.863Z,39.95
2018-06-27T16:55:02.292Z,39.81
2018-06-27T16:57:31.823Z,39.60
2018-06-27T17:00:00.650Z,39.56
2018-06-27T17:02:30.268Z,39.66
2018-06-27T17:04:59.634Z,39.71
2018-06-27T17:07:28.747Z,39.90
2018-06-27T17:09:58.618Z,39.96
2018-06-27T17:12:28.142Z,40.05
2018-06-27T17:14:57.502Z,40.17
2018-06-27T17:17:26.925Z,40.15
2018-06-27T17:19:55.755Z,39.98
2018-06-27T17:22:24.902Z,39.81
2018-06-27T17:24:54.297Z,39.88
2018-06-27T17:27:23.259Z,39.76
2018-06-27T17:29:52.525Z,39.55
2018-06-27T17:32:21.431Z,39.21
2018-06-27T17:34:50.252Z,39.04
2018-06-27T17:37:19.023Z,38.92
2018-06-27T17:39:48.666Z,38.92
2018-06-27T17:42:18.102Z,38.96
2018-06-27T17:44:46.923Z,38.88
2018-06-27T17:47:15.639Z,38.87
2018-06-27T17:49:44.439Z,38.76
2018-06-27T17:52:13.216Z,38.56
2018-06-27T17:54:42.180Z,38.49
2018-06-27T17:57:12.152Z,38.42
2018-06-27T17:59:41.706Z,38.41
2018-06-27T18:02:11.338Z,38.48
2018-06-27T18:04:40.106Z,38.43
2018-06-27T18:07:09.470Z,38.46
2018-06-27T18:09:38.962Z,38.36
2018-06-27T18:12:07.795Z,38.28
2018-06-27T18:14:37.341Z,38.22
2018-06-27T18:17:06.710Z,38.17
2018-06-27T18:19:35.503Z,38.01
2018-06-27T18:22:04.338Z,37.79
2018-06-27T18:24:33.427Z,37.64
2018-06-27T18:27:02.200Z,37.50
2018-06-27T18:29:31.305Z,37.26
2018-06-27T18:32:00.148Z,37.07
2018-06-27T18:34:29.667Z,36.97
2018-06-27T18:36:58.481Z,36.79
2018-06-27T18:39:28.224Z,36.59
2018-06-27T18:41:57.563Z,36.29
2018-06-27T18:44:26.399Z,35.50
2018-06-27T18:46:55.344Z,34.80
2018-06-27T18:49:24.752Z,34.06
2018-06-27T18:51:53.773Z,33.31
2018-06-27T18:54:22.929Z,32.69
2018-06-27T18:56:54.002Z,32.14
2018-06-27T18:59:23.342Z,31.63
2018-06-27T19:01:53.228Z,31.20
2018-06-27T19:04:22.455Z,30.80
2018-06-27T19:06:52.607Z,30.40
2018-06-27T19:09:22.487Z,30.08
2018-06-27T19:11:51.526Z,29.80
2018-06-27T19:14:20.808Z,29.54
2018-06-27T19:16:50.357Z,29.29
2018-06-27T19:19:19.157Z,29.10
2018-06-27T19:21:47.963Z,28.91
2018-06-27T19:24:16.834Z,28.71
2018-06-27T19:26:45.655Z,28.53
2018-06-27T19:29:14.658Z,28.30
2018-06-27T19:31:43.501Z,28.11
2018-06-27T19:34:12.268Z,27.96
2018-06-27T19:36:41.023Z,27.81
2018-06-27T19:39:11.653Z,27.66
2018-06-27T19:41:41.354Z,27.46
2018-06-27T19:44:10.665Z,27.33
2018-06-27T19:46:39.554Z,27.19
2018-06-27T19:49:08.397Z,27.04
2018-06-27T19:51:37.269Z,26.88
2018-06-27T19:54:06.214Z,26.74
2018-06-27T19:56:36.055Z,26.61
2018-06-27T19:59:05.051Z,26.48
2018-06-27T20:01:35.015Z,26.36
2018-06-27T20:04:03.816Z,26.20
2018-06-27T20:06:33.743Z,26.02
2018-06-27T20:09:03.468Z,25.82
2018-06-27T20:11:33.440Z,25.64
2018-06-27T20:14:03.172Z,25.43
2018-06-27T20:16:32.997Z,25.27
2018-06-27T20:19:01.746Z,25.16
2018-06-27T20:21:30.508Z,25.05
2018-06-27T20:23:59.271Z,24.97
2018-06-27T20:26:28.539Z,24.90
2018-06-27T20:28:57.449Z,24.78
2018-06-27T20:31:26.326Z,24.68
2018-06-27T20:33:55.243Z,24.59
2018-06-27T20:36:24.834Z,24.51
2018-06-27T20:38:53.832Z,24.43
2018-06-27T20:41:23.649Z,24.36
2018-06-27T20:43:52.708Z,24.28
2018-06-27T20:46:21.757Z,24.19
2018-06-27T20:48:50.624Z,24.14
2018-06-27T20:51:19.736Z,24.07
2018-06-27T20:53:50.000Z,24.00
2018-06-27T20:56:34.123Z,23.92
2018-06-27T20:59:02.939Z,23.85
2018-06-27T21:01:32.519Z,23.79
2018-06-27T21:04:02.202Z,23.72
2018-06-27T21:06:32.052Z,23.65
2018-06-27T21:09:01.952Z,23.59
2018-06-27T21:11:31.784Z,23.53
2018-06-27T21:14:01.439Z,23.48
2018-06-27T21:16:30.753Z,23.43
2018-06-27T21:18:59.568Z,23.37
2018-06-27T21:21:28.458Z,23.33
2018-06-27T21:23:57.232Z,23.28
2018-06-27T21:26:26.508Z,23.23
2018-06-27T21:28:55.821Z,23.17
2018-06-27T21:31:24.795Z,23.10
2018-06-27T21:33:53.816Z,23.03
2018-06-27T21:36:22.750Z,22.95
2018-06-27T21:38:51.700Z,22.87
2018-06-27T21:41:21.424Z,22.78
2018-06-27T21:43:50.246Z,22.73
2018-06-27T21:46:19.050Z,22.66
2018-06-27T21:48:47.921Z,22.60
2018-06-27T21:51:16.669Z,22.51
2018-06-27T21:53:45.780Z,22.42
2018-06-27T21:56:15.408Z,22.36
2018-06-27T21:58:44.151Z,22.30
2018-06-27T22:01:14.418Z,22.24
2018-06-27T22:03:44.285Z,22.18
2018-06-27T22:06:14.364Z,22.13
2018-06-27T22:08:43.917Z,22.07
2018-06-27T22:11:13.498Z,22.00
2018-06-27T22:13:43.252Z,21.91
2018-06-27T22:16:12.624Z,21.85
2018-06-27T22:18:41.386Z,21.80
2018-06-27T22:21:10.154Z,21.77
2018-06-27T22:23:39.036Z,21.66
2018-06-27T22:26:07.855Z,21.56
2018-06-27T22:28:36.722Z,21.46
2018-06-27T22:31:05.561Z,21.34
2018-06-27T22:33:34.334Z,21.25
2018-06-27T22:36:03.089Z,21.18
2018-06-27T22:38:31.858Z,21.12
2018-06-27T22:41:01.981Z,21.08
2018-06-27T22:43:30.786Z,21.01
2018-06-27T22:45:59.638Z,20.95
2018-06-27T22:48:28.492Z,20.88
2018-06-27T22:50:57.230Z,20.80
2018-06-27T22:53:26.127Z,20.75
2018-06-27T22:55:55.914Z,20.66
2018-06-27T22:58:25.652Z,20.59
2018-06-27T23:00:54.700Z,20.56
2018-06-27T23:03:24.763Z,20.53
2018-06-27T23:05:54.598Z,20.51
2018-06-27T23:08:24.422Z,20.47
2018-06-27T23:10:54.064Z,20.36
2018-06-27T23:13:24.002Z,20.33
2018-06-27T23:15:53.610Z,20.29
2018-06-27T23:18:22.603Z,20.24
2018-06-27T23:20:51.348Z,20.21
2018-06-27T23:23:20.138Z,20.14
2018-06-27T23:25:48.887Z,20.06
2018-06-27T23:28:17.918Z,19.96
2018-06-27T23:30:46.691Z,19.85
2018-06-27T23:33:15.482Z,19.77
2018-06-27T23:35:44.246Z,19.72
2018-06-27T23:38:13.058Z,19.69
2018-06-27T23:40:42.639Z,19.64
2018-06-27T23:43:11.430Z,19.56
2018-06-27T23:45:40.187Z,19.52
2018-06-27T23:48:09.015Z,19.46
2018-06-27T23:50:37.794Z,19.37
2018-06-27T23:53:06.720Z,19.30
2018-06-27T23:55:36.466Z,19.25
2018-06-27T23:58:06.277Z,19.17
